Time;durP1;ratioP1;P1;durP2;ratioP2;P2;SDS_P1;SDS_P2;PMS_P1;PMS_P2;Temp;Humidity;BMP_temperature;BMP_pressure;BME280_temperature;BME280_humidity;BME280_pressure;Samples;Min_cycle;Max_cycle;Signal;HPM_P1;HPM_P2
2024/01/27 00:00:09;;;;;;;1.50;1.23;;;7.20;99.90;;;;;;5041731;28;20052;-65
2024/01/27 00:02:36;;;;;;;1.60;1.45;;;7.20;99.90;;;;;;5040932;28;20037;-66
2024/01/27 00:05:02;;;;;;;1.98;1.77;;;7.20;99.90;;;;;;5036458;28;20024;-65
2024/01/27 00:07:28;;;;;;;1.50;1.40;;;7.20;99.90;;;;;;5039168;28;20500;-66
2024/01/27 00:09:55;;;;;;;2.10;1.90;;;7.20;99.90;;;;;;5013880;28;20040;-68
2024/01/27 00:12:20;;;;;;;2.95;1.73;;;7.20;99.90;;;;;;5046116;28;20020;-66
2024/01/27 00:14:46;;;;;;;13.65;2.40;;;7.20;99.90;;;;;;5038878;28;20071;-66
2024/01/27 00:17:12;;;;;;;1.90;1.80;;;7.20;99.90;;;;;;5037959;28;20012;-66
2024/01/27 00:19:37;;;;;;;2.38;1.75;;;7.10;99.90;;;;;;5036183;28;20056;-66
2024/01/27 00:22:03;;;;;;;1.33;1.20;;;7.10;99.90;;;;;;5043192;28;21189;-68
2024/01/27 00:24:28;;;;;;;1.80;1.40;;;7.10;99.90;;;;;;5040934;28;20044;-63
2024/01/27 00:26:54;;;;;;;3.28;1.75;;;7.20;99.90;;;;;;5044228;28;20056;-68
2024/01/27 00:29:20;;;;;;;2.80;1.80;;;7.10;99.90;;;;;;5043728;28;20526;-70
2024/01/27 00:31:46;;;;;;;2.10;1.55;;;7.20;99.90;;;;;;5024212;28;20033;-65
2024/01/27 00:34:11;;;;;;;2.22;1.77;;;7.20;99.90;;;;;;5040404;28;20742;-66
2024/01/27 00:36:37;;;;;;;2.03;1.70;;;7.20;99.90;;;;;;5019947;28;20039;-65
2024/01/27 00:39:04;;;;;;;1.65;1.48;;;7.10;99.90;;;;;;5036053;28;20541;-64
2024/01/27 00:41:29;;;;;;;2.80;1.48;;;7.20;99.90;;;;;;5032596;28;20059;-63
2024/01/27 00:43:55;;;;;;;2.35;1.45;;;7.20;99.90;;;;;;5043505;28;20032;-64
2024/01/27 00:46:21;;;;;;;1.75;1.33;;;7.20;99.90;;;;;;5040554;28;20477;-69
2024/01/27 00:48:46;;;;;;;2.13;1.20;;;7.20;99.90;;;;;;5033828;28;20219;-65
2024/01/27 00:51:13;;;;;;;1.58;1.48;;;7.20;99.90;;;;;;5037075;28;20028;-64
2024/01/27 00:53:39;;;;;;;1.65;1.20;;;7.20;99.90;;;;;;5043748;28;20056;-65
2024/01/27 00:56:05;;;;;;;2.03;1.40;;;7.20;99.90;;;;;;5039305;28;20028;-64
2024/01/27 00:58:31;;;;;;;2.50;1.60;;;7.20;99.90;;;;;;5043864;28;20432;-64
2024/01/27 01:00:57;;;;;;;2.60;1.38;;;7.20;99.90;;;;;;5019631;28;20074;-64
2024/01/27 01:03:22;;;;;;;1.13;1.00;;;7.30;99.90;;;;;;5040681;28;20462;-65
2024/01/27 01:05:48;;;;;;;2.15;1.48;;;7.30;99.90;;;;;;5043908;28;20652;-64
2024/01/27 01:08:14;;;;;;;1.40;0.90;;;7.30;99.90;;;;;;5039604;28;20398;-64
2024/01/27 01:10:39;;;;;;;2.53;1.10;;;7.20;99.90;;;;;;5028892;28;20051;-64
2024/01/27 01:13:06;;;;;;;2.30;1.13;;;7.20;99.90;;;;;;5026195;28;20035;-66
2024/01/27 01:15:31;;;;;;;1.40;1.00;;;7.20;99.90;;;;;;5036155;28;20067;-68
2024/01/27 01:17:57;;;;;;;1.17;0.88;;;7.10;99.90;;;;;;5040607;28;20713;-67
2024/01/27 01:20:22;;;;;;;2.75;1.10;;;7.10;99.90;;;;;;5040550;28;20040;-67
2024/01/27 01:22:48;;;;;;;1.33;0.90;;;7.00;99.90;;;;;;5042155;28;20048;-68
2024/01/27 01:25:14;;;;;;;2.90;0.90;;;7.00;99.90;;;;;;5041167;28;20441;-69
2024/01/27 01:27:39;;;;;;;3.63;0.93;;;6.90;99.90;;;;;;5041253;28;20655;-68
2024/01/27 01:30:06;;;;;;;1.45;1.08;;;6.90;99.90;;;;;;5040206;28;20628;-69
2024/01/27 01:32:31;;;;;;;2.53;1.02;;;6.90;99.90;;;;;;5035697;28;20028;-69
2024/01/27 01:34:57;;;;;;;2.78;0.60;;;6.90;99.90;;;;;;5035731;28;20076;-64
2024/01/27 01:37:23;;;;;;;2.55;0.88;;;6.90;99.90;;;;;;5043974;28;20123;-68
2024/01/27 01:39:49;;;;;;;1.05;0.60;;;6.80;99.90;;;;;;5038225;28;20036;-66
2024/01/27 01:42:14;;;;;;;1.67;0.90;;;6.70;99.90;;;;;;5040365;28;20067;-66
2024/01/27 01:44:40;;;;;;;0.60;0.40;;;6.70;99.90;;;;;;5021377;28;20301;-66
2024/01/27 01:47:08;;;;;;;0.88;0.40;;;6.70;99.90;;;;;;5037836;28;20607;-68
2024/01/27 01:49:34;;;;;;;0.93;0.40;;;6.70;99.90;;;;;;5038645;28;20024;-69
2024/01/27 01:52:00;;;;;;;1.48;0.55;;;6.70;99.90;;;;;;5020892;28;20120;-69
2024/01/27 01:54:27;;;;;;;3.40;0.50;;;6.70;99.90;;;;;;5036857;28;20085;-65
2024/01/27 01:56:58;;;;;;;1.35;0.63;;;6.80;99.90;;;;;;5039792;28;20298;-66
2024/01/27 01:59:23;;;;;;;1.85;0.60;;;6.70;99.90;;;;;;5037193;28;20036;-66
2024/01/27 02:01:49;;;;;;;0.63;0.60;;;6.70;99.90;;;;;;5037580;28;20037;-66
2024/01/27 02:04:14;;;;;;;0.57;0.40;;;6.60;99.90;;;;;;5037452;28;20535;-66
2024/01/27 02:06:40;;;;;;;0.73;0.43;;;6.60;99.90;;;;;;5040527;28;20453;-66
2024/01/27 02:09:06;;;;;;;5.57;0.65;;;6.60;99.90;;;;;;5028475;28;20037;-69
2024/01/27 02:11:31;;;;;;;1.05;0.50;;;6.60;99.90;;;;;;5033117;28;20039;-70
2024/01/27 02:13:57;;;;;;;2.08;0.40;;;6.60;99.90;;;;;;5032939;28;20017;-66
2024/01/27 02:16:22;;;;;;;0.35;0.17;;;6.50;99.90;;;;;;5039586;28;20273;-74
2024/01/27 02:18:48;;;;;;;0.88;0.22;;;6.50;99.90;;;;;;5038763;28;20050;-67
2024/01/27 02:21:14;;;;;;;1.42;0.45;;;6.50;99.90;;;;;;5013989;28;20049;-72
2024/01/27 02:23:39;;;;;;;1.13;0.40;;;6.40;99.90;;;;;;5016857;28;20033;-67
2024/01/27 02:26:05;;;;;;;1.35;0.20;;;6.40;99.90;;;;;;5012172;28;20033;-68
2024/01/27 02:28:33;;;;;;;0.68;0.35;;;6.40;99.90;;;;;;5016029;28;20525;-67
2024/01/27 02:30:59;;;;;;;0.73;0.38;;;6.40;99.90;;;;;;5014003;28;20766;-67
2024/01/27 02:33:25;;;;;;;3.03;0.52;;;6.30;99.90;;;;;;5016051;28;20481;-69
2024/01/27 02:35:51;;;;;;;0.68;0.20;;;6.30;99.90;;;;;;4986732;28;20060;-68
2024/01/27 02:38:17;;;;;;;0.75;0.40;;;6.30;99.90;;;;;;5014138;28;20092;-67
2024/01/27 02:40:42;;;;;;;0.22;0.13;;;6.30;99.90;;;;;;5015901;28;20492;-68
2024/01/27 02:43:08;;;;;;;0.82;0.38;;;6.20;99.90;;;;;;5016577;28;20534;-69
2024/01/27 02:45:33;;;;;;;1.48;0.40;;;6.20;99.90;;;;;;5015428;28;20105;-69
2024/01/27 02:47:59;;;;;;;1.55;0.38;;;6.20;99.90;;;;;;5015258;28;20025;-65
2024/01/27 02:50:25;;;;;;;0.85;0.30;;;6.20;99.90;;;;;;5015717;28;20533;-65
2024/01/27 02:52:50;;;;;;;3.35;0.50;;;6.10;99.90;;;;;;5012365;28;20021;-65
2024/01/27 02:55:16;;;;;;;0.32;0.22;;;6.10;99.90;;;;;;5010226;28;20037;-66
2024/01/27 02:57:41;;;;;;;1.55;0.40;;;6.00;99.90;;;;;;5014795;28;20088;-65
2024/01/27 03:00:08;;;;;;;0.40;0.30;;;6.00;99.90;;;;;;5012924;28;20461;-65
2024/01/27 03:02:33;;;;;;;1.30;0.30;;;6.00;99.90;;;;;;5021465;28;20029;-67
2024/01/27 03:04:59;;;;;;;0.80;0.45;;;5.90;99.90;;;;;;5023964;28;20044;-66
2024/01/27 03:07:25;;;;;;;1.20;0.38;;;5.90;99.90;;;;;;5021941;28;20883;-66
2024/01/27 03:09:51;;;;;;;0.73;0.20;;;6.00;99.90;;;;;;5017398;28;20033;-65
2024/01/27 03:12:18;;;;;;;1.10;0.20;;;6.00;99.90;;;;;;5021629;28;20117;-65
2024/01/27 03:14:43;;;;;;;2.75;0.82;;;5.90;99.90;;;;;;5015309;28;20505;-66
2024/01/27 03:17:09;;;;;;;2.10;0.30;;;6.00;99.90;;;;;;5016443;28;20033;-65
2024/01/27 03:19:34;;;;;;;0.73;0.40;;;5.90;99.90;;;;;;5023623;28;20059;-69
2024/01/27 03:22:00;;;;;;;2.25;0.38;;;5.90;99.90;;;;;;5036355;28;20104;-73
2024/01/27 03:24:26;;;;;;;1.30;0.30;;;5.80;99.90;;;;;;5033451;28;20596;-65
2024/01/27 03:26:51;;;;;;;1.88;0.40;;;5.70;99.90;;;;;;5033751;28;20033;-68
2024/01/27 03:29:17;;;;;;;1.10;0.28;;;5.70;99.90;;;;;;5034444;28;20569;-66
2024/01/27 03:31:43;;;;;;;1.50;0.50;;;5.70;99.90;;;;;;5029465;28;20462;-67
2024/01/27 03:34:08;;;;;;;0.60;0.28;;;5.70;99.90;;;;;;5036943;28;20025;-67
2024/01/27 03:36:34;;;;;;;1.23;0.30;;;5.70;99.90;;;;;;5034396;28;20115;-65
2024/01/27 03:39:00;;;;;;;1.85;0.40;;;5.60;99.90;;;;;;5035046;28;20866;-65
2024/01/27 03:41:26;;;;;;;1.20;0.40;;;5.50;99.90;;;;;;5023904;28;20047;-66
2024/01/27 03:43:52;;;;;;;1.27;0.28;;;5.50;99.90;;;;;;5036004;28;20369;-66
2024/01/27 03:46:17;;;;;;;1.33;0.32;;;5.50;99.90;;;;;;5016143;28;20197;-67
2024/01/27 03:48:43;;;;;;;2.13;0.50;;;5.50;99.90;;;;;;5032916;28;20052;-77
2024/01/27 03:51:09;;;;;;;1.55;0.30;;;5.50;99.90;;;;;;5032077;28;20039;-66
2024/01/27 03:53:34;;;;;;;2.40;0.20;;;5.50;99.90;;;;;;5032635;28;20048;-65
2024/01/27 03:56:04;;;;;;;1.85;0.40;;;5.50;99.90;;;;;;5034922;28;20033;-72
2024/01/27 03:58:30;;;;;;;0.52;0.22;;;5.50;99.90;;;;;;5032806;28;20501;-65
2024/01/27 04:00:57;;;;;;;2.13;0.22;;;5.50;99.90;;;;;;5036692;28;20807;-70
2024/01/27 04:03:23;;;;;;;1.02;0.30;;;5.40;99.90;;;;;;5017171;28;20033;-64
2024/01/27 04:05:48;;;;;;;1.67;0.40;;;5.40;99.90;;;;;;5033983;28;20090;-64
2024/01/27 04:08:14;;;;;;;1.40;0.40;;;5.30;99.90;;;;;;5030983;28;20124;-67
2024/01/27 04:10:39;;;;;;;0.50;0.20;;;5.40;99.90;;;;;;5027602;28;20060;-71
2024/01/27 04:13:05;;;;;;;0.25;0.13;;;5.40;99.90;;;;;;5030137;28;20137;-68
2024/01/27 04:15:38;;;;;;;1.75;0.70;;;5.40;99.90;;;;;;5034846;28;20037;-66
2024/01/27 04:18:07;;;;;;;0.73;0.10;;;5.40;99.90;;;;;;5032987;28;20036;-65
2024/01/27 04:20:33;;;;;;;2.95;0.28;;;5.40;99.90;;;;;;5035797;28;20049;-66
2024/01/27 04:22:59;;;;;;;1.75;0.45;;;5.40;99.90;;;;;;5035228;28;20193;-68
2024/01/27 04:25:24;;;;;;;1.20;0.28;;;5.30;99.90;;;;;;5037015;28;20174;-69
2024/01/27 04:27:50;;;;;;;1.88;0.40;;;5.30;99.90;;;;;;5033011;28;20913;-66
2024/01/27 04:30:15;;;;;;;1.73;0.20;;;5.30;99.90;;;;;;5025633;28;20032;-66
2024/01/27 04:32:41;;;;;;;3.67;0.55;;;5.30;99.90;;;;;;5028739;28;20033;-66
2024/01/27 04:35:10;;;;;;;0.22;0.22;;;5.30;99.90;;;;;;5033485;28;20036;-67
2024/01/27 04:37:37;;;;;;;3.63;0.70;;;5.30;99.90;;;;;;5035664;28;20032;-65
2024/01/27 04:40:05;;;;;;;1.02;0.20;;;5.20;99.90;;;;;;5035376;28;20079;-71
2024/01/27 04:42:37;;;;;;;1.40;0.50;;;5.20;99.90;;;;;;5018323;28;20463;-65
2024/01/27 04:45:04;;;;;;;3.65;0.98;;;5.20;99.90;;;;;;5028752;28;20032;-64
2024/01/27 04:47:30;;;;;;;3.67;0.60;;;5.20;99.90;;;;;;5034195;28;20040;-68
2024/01/27 04:49:57;;;;;;;3.72;0.40;;;5.20;99.90;;;;;;5024599;28;20028;-65
2024/01/27 04:52:23;;;;;;;1.92;0.40;;;5.10;99.90;;;;;;5031861;28;20099;-65
2024/01/27 04:54:48;;;;;;;3.65;0.68;;;5.10;99.90;;;;;;5038858;28;20642;-65
2024/01/27 04:57:14;;;;;;;2.83;0.28;;;5.00;99.90;;;;;;5041101;28;20032;-68
2024/01/27 04:59:40;;;;;;;2.55;0.80;;;5.20;99.90;;;;;;5039677;28;20465;-64
2024/01/27 05:02:06;;;;;;;2.85;0.73;;;5.10;99.90;;;;;;5034264;28;20127;-65
2024/01/27 05:04:32;;;;;;;4.22;0.70;;;5.10;99.90;;;;;;5036676;28;20032;-63
2024/01/27 05:06:58;;;;;;;1.50;0.25;;;5.10;99.90;;;;;;5038676;28;20075;-64
2024/01/27 05:09:24;;;;;;;2.30;0.60;;;5.10;99.90;;;;;;5042887;28;20099;-69
2024/01/27 05:11:52;;;;;;;1.73;0.60;;;5.10;99.90;;;;;;5039604;28;20246;-65
2024/01/27 05:14:18;;;;;;;4.00;0.85;;;5.10;99.90;;;;;;5039681;28;20489;-66
2024/01/27 05:16:43;;;;;;;3.38;0.77;;;5.10;99.90;;;;;;5023346;28;20836;-65
2024/01/27 05:19:10;;;;;;;2.65;0.60;;;5.10;99.90;;;;;;5042719;28;20414;-65
2024/01/27 05:21:36;;;;;;;3.25;0.30;;;5.10;99.90;;;;;;5042916;28;20040;-67
2024/01/27 05:24:02;;;;;;;9.88;0.60;;;5.00;99.90;;;;;;5043918;28;20033;-64
2024/01/27 05:26:27;;;;;;;1.10;0.32;;;5.10;99.90;;;;;;5043910;28;20027;-67
2024/01/27 05:28:53;;;;;;;3.70;0.68;;;4.90;99.90;;;;;;5039574;28;20093;-69
2024/01/27 05:31:18;;;;;;;3.65;0.65;;;5.00;99.90;;;;;;5037659;28;20587;-65
2024/01/27 05:33:44;;;;;;;2.20;0.77;;;5.00;99.90;;;;;;5040183;28;20042;-66
2024/01/27 05:36:10;;;;;;;3.47;0.70;;;5.00;99.90;;;;;;5039512;28;20024;-77
2024/01/27 05:38:35;;;;;;;2.10;0.60;;;5.00;99.90;;;;;;5040312;28;20032;-68
2024/01/27 05:41:01;;;;;;;2.10;0.38;;;5.00;99.90;;;;;;5039859;28;20569;-66
2024/01/27 05:43:27;;;;;;;6.07;1.00;;;4.90;99.90;;;;;;5038929;28;20036;-65
2024/01/27 05:45:53;;;;;;;3.53;0.60;;;4.90;99.90;;;;;;5020299;28;20481;-64
2024/01/27 05:48:19;;;;;;;3.92;0.57;;;4.90;99.90;;;;;;5037064;28;20296;-64
2024/01/27 05:50:56;;;;;;;3.20;0.40;;;4.90;99.90;;;;;;5032831;28;20377;-64
2024/01/27 05:53:22;;;;;;;5.05;0.60;;;4.90;99.90;;;;;;5044441;28;20043;-65
2024/01/27 05:55:47;;;;;;;2.65;0.60;;;4.90;99.90;;;;;;5034038;28;20017;-64
2024/01/27 05:58:13;;;;;;;2.55;0.55;;;5.00;99.90;;;;;;5033519;28;20029;-65
2024/01/27 06:00:39;;;;;;;4.57;0.95;;;5.00;99.90;;;;;;5037784;28;20063;-65
2024/01/27 06:03:04;;;;;;;2.05;0.63;;;5.00;99.90;;;;;;5043904;28;20040;-68
2024/01/27 06:05:30;;;;;;;3.80;0.70;;;5.00;99.90;;;;;;5043274;28;20029;-66
2024/01/27 06:07:56;;;;;;;3.83;0.80;;;5.00;99.90;;;;;;5042835;28;20085;-64
2024/01/27 06:10:22;;;;;;;3.22;0.77;;;4.90;99.90;;;;;;5038731;28;20236;-66
2024/01/27 06:12:48;;;;;;;2.50;0.80;;;4.90;99.90;;;;;;5045135;28;20465;-64
2024/01/27 06:15:15;;;;;;;4.55;0.82;;;4.90;99.90;;;;;;5041977;28;20091;-68
2024/01/27 06:17:40;;;;;;;4.15;0.52;;;4.90;99.90;;;;;;5040501;28;20115;-69
2024/01/27 06:20:07;;;;;;;6.68;0.82;;;4.90;99.90;;;;;;5041887;28;20051;-66
2024/01/27 06:22:32;;;;;;;2.80;0.80;;;4.90;99.90;;;;;;5039555;28;20114;-65
2024/01/27 06:24:58;;;;;;;3.08;0.60;;;4.90;99.90;;;;;;5044067;28;20104;-65
2024/01/27 06:27:24;;;;;;;2.78;0.45;;;4.80;99.90;;;;;;5043663;28;20039;-65
2024/01/27 06:29:50;;;;;;;3.47;0.52;;;4.80;99.90;;;;;;5042985;28;20441;-67
2024/01/27 06:32:15;;;;;;;3.95;0.90;;;4.80;99.90;;;;;;5039826;28;20896;-68
2024/01/27 06:34:41;;;;;;;2.47;0.80;;;4.80;99.90;;;;;;5039088;28;20687;-66
2024/01/27 06:37:07;;;;;;;3.20;0.65;;;4.90;99.90;;;;;;5040390;28;20408;-63
2024/01/27 06:39:32;;;;;;;4.35;0.80;;;4.90;99.90;;;;;;5037944;28;20090;-64
2024/01/27 06:41:58;;;;;;;2.78;0.75;;;4.80;99.90;;;;;;5033567;28;20694;-65
2024/01/27 06:44:23;;;;;;;5.00;0.70;;;4.80;99.90;;;;;;5039818;28;20263;-66
2024/01/27 06:46:50;;;;;;;3.05;0.50;;;4.80;99.90;;;;;;5043205;28;20036;-64
2024/01/27 06:49:19;;;;;;;0.93;0.40;;;4.90;99.90;;;;;;5042614;28;20044;-67
2024/01/27 06:51:45;;;;;;;2.65;0.30;;;4.90;99.90;;;;;;5037055;28;20036;-64
2024/01/27 06:54:11;;;;;;;4.53;0.57;;;4.90;99.90;;;;;;5043616;28;20455;-63
2024/01/27 06:56:36;;;;;;;2.50;0.70;;;4.90;99.90;;;;;;5044337;28;20445;-66
2024/01/27 06:59:02;;;;;;;2.45;0.57;;;5.00;99.90;;;;;;5039540;28;20024;-64
2024/01/27 07:01:28;;;;;;;2.55;0.38;;;4.90;99.90;;;;;;5039378;28;20029;-64
2024/01/27 07:03:53;;;;;;;5.18;0.70;;;5.00;99.90;;;;;;5038078;28;20423;-68
2024/01/27 07:06:19;;;;;;;2.55;0.65;;;4.90;99.90;;;;;;5043096;28;21115;-68
2024/01/27 07:08:44;;;;;;;4.15;0.68;;;5.00;99.90;;;;;;5042976;28;20079;-68
2024/01/27 07:11:10;;;;;;;5.47;1.25;;;5.10;99.90;;;;;;5040046;28;20211;-66
2024/01/27 07:13:36;;;;;;;3.65;0.60;;;5.10;99.90;;;;;;5039803;28;20033;-67
2024/01/27 07:16:02;;;;;;;4.93;0.65;;;5.10;99.90;;;;;;5042199;28;20040;-67
2024/01/27 07:18:28;;;;;;;3.10;1.00;;;5.10;99.90;;;;;;5038914;28;20049;-67
2024/01/27 07:20:54;;;;;;;2.63;0.40;;;5.20;99.90;;;;;;5033841;28;20509;-69
2024/01/27 07:23:20;;;;;;;1.98;0.60;;;5.30;99.90;;;;;;5045360;28;20023;-67
2024/01/27 07:25:46;;;;;;;2.55;0.68;;;5.40;99.90;;;;;;5047212;28;20720;-65
2024/01/27 07:28:12;;;;;;;2.83;0.60;;;5.40;99.90;;;;;;5020879;28;20967;-68
2024/01/27 07:30:38;;;;;;;3.63;0.70;;;5.50;99.90;;;;;;5045035;28;20481;-66
2024/01/27 07:33:04;;;;;;;2.30;0.73;;;5.60;99.90;;;;;;5037813;28;20066;-67
2024/01/27 07:35:31;;;;;;;2.95;0.60;;;5.70;99.90;;;;;;5037008;28;20029;-67
2024/01/27 07:37:57;;;;;;;3.10;0.50;;;5.80;99.90;;;;;;5040419;28;20028;-66
2024/01/27 07:40:22;;;;;;;3.40;0.77;;;5.90;99.90;;;;;;5046299;28;20476;-67
2024/01/27 07:42:48;;;;;;;42.15;20.42;;;5.90;99.90;;;;;;5044013;28;20028;-66
2024/01/27 07:45:15;;;;;;;69.28;34.83;;;5.90;99.90;;;;;;5041268;28;20212;-66
2024/01/27 07:47:41;;;;;;;10.65;6.65;;;6.00;99.90;;;;;;5044910;28;20035;-66
2024/01/27 07:50:07;;;;;;;2.33;0.60;;;6.10;99.90;;;;;;5043960;28;20028;-66
2024/01/27 07:52:32;;;;;;;3.28;0.73;;;6.20;99.90;;;;;;5041466;28;20397;-67
2024/01/27 07:54:58;;;;;;;3.60;1.27;;;6.30;99.90;;;;;;5041725;28;20062;-67
2024/01/27 07:57:24;;;;;;;3.72;0.90;;;6.20;99.90;;;;;;5042031;28;20091;-65
2024/01/27 07:59:49;;;;;;;7.22;1.08;;;6.30;99.90;;;;;;5034671;28;20131;-64
2024/01/27 08:02:15;;;;;;;2.47;0.80;;;6.20;99.90;;;;;;5035348;28;20033;-64
2024/01/27 08:04:40;;;;;;;4.65;0.85;;;6.00;99.90;;;;;;5036442;28;20060;-64
2024/01/27 08:07:09;;;;;;;2.72;0.70;;;6.00;99.90;;;;;;5042919;28;20032;-64
2024/01/27 08:09:35;;;;;;;4.78;1.83;;;5.80;99.90;;;;;;5045180;28;20057;-65
2024/01/27 08:12:02;;;;;;;8.63;4.88;;;5.80;99.90;;;;;;5040394;28;20182;-66
2024/01/27 08:14:32;;;;;;;3.03;0.98;;;5.80;99.90;;;;;;5026750;28;20218;-68
2024/01/27 08:16:58;;;;;;;2.20;0.57;;;5.80;99.90;;;;;;5044387;28;20578;-67
2024/01/27 08:19:24;;;;;;;4.35;0.70;;;5.70;99.90;;;;;;5029035;28;20065;-64
2024/01/27 08:21:50;;;;;;;1.33;0.43;;;5.60;99.90;;;;;;5023029;28;20037;-66
2024/01/27 08:24:16;;;;;;;4.07;0.80;;;5.60;99.90;;;;;;5016738;28;20044;-79
2024/01/27 08:26:42;;;;;;;2.42;0.60;;;5.70;99.90;;;;;;5025850;28;20033;-65
2024/01/27 08:29:09;;;;;;;1.60;0.65;;;5.60;99.90;;;;;;5019139;28;20037;-64
2024/01/27 08:31:34;;;;;;;4.47;0.80;;;5.60;99.90;;;;;;5018034;28;20040;-65
2024/01/27 08:34:00;;;;;;;3.50;0.60;;;5.60;99.90;;;;;;5016874;28;20036;-65
2024/01/27 08:36:26;;;;;;;2.00;0.40;;;5.50;99.90;;;;;;5018731;28;20063;-65
2024/01/27 08:38:51;;;;;;;2.80;0.88;;;5.50;99.90;;;;;;5016822;28;20043;-64
2024/01/27 08:41:17;;;;;;;3.00;0.68;;;5.50;99.90;;;;;;5021833;28;20136;-64
2024/01/27 08:43:42;;;;;;;4.20;0.50;;;5.50;99.90;;;;;;5009835;28;21126;-63
2024/01/27 08:46:11;;;;;;;3.72;1.10;;;5.50;99.90;;;;;;5000508;28;20060;-65
2024/01/27 08:48:36;;;;;;;12.90;7.50;;;5.50;99.90;;;;;;5008608;28;20508;-67
2024/01/27 08:51:02;;;;;;;3.17;1.05;;;5.50;99.90;;;;;;5022908;28;20033;-65
2024/01/27 08:53:28;;;;;;;7.00;3.50;;;5.60;99.90;;;;;;5018199;28;20518;-65
2024/01/27 08:55:54;;;;;;;5.85;3.03;;;5.60;99.90;;;;;;5012018;28;20074;-65
2024/01/27 08:58:19;;;;;;;3.20;0.95;;;5.70;99.90;;;;;;5019575;28;20017;-64
2024/01/27 09:00:45;;;;;;;4.70;1.75;;;5.60;99.90;;;;;;5021128;28;20460;-65
2024/01/27 09:03:12;;;;;;;2.97;0.63;;;5.60;99.90;;;;;;5019721;28;20477;-64
2024/01/27 09:05:37;;;;;;;3.70;1.05;;;5.60;99.90;;;;;;5018483;28;20022;-68
2024/01/27 09:08:03;;;;;;;2.92;0.80;;;5.60;99.90;;;;;;5019071;28;20052;-67
2024/01/27 09:10:29;;;;;;;1.00;0.68;;;5.60;99.90;;;;;;5022685;28;20028;-66
2024/01/27 09:12:55;;;;;;;4.00;1.00;;;5.70;99.90;;;;;;5018071;28;20083;-66
2024/01/27 09:15:20;;;;;;;7.95;1.42;;;5.70;99.90;;;;;;5018699;28;20459;-65
2024/01/27 09:17:48;;;;;;;5.40;0.85;;;5.60;99.90;;;;;;5024034;28;20089;-65
2024/01/27 09:20:14;;;;;;;3.75;0.85;;;5.60;99.90;;;;;;5033664;28;20123;-67
2024/01/27 09:22:41;;;;;;;2.22;0.60;;;5.90;99.90;;;;;;5043552;28;20351;-65
2024/01/27 09:25:08;;;;;;;1.20;0.40;;;6.10;99.90;;;;;;5038781;28;20234;-65
2024/01/27 09:27:34;;;;;;;2.70;0.50;;;6.10;99.90;;;;;;5038684;28;20036;-65
2024/01/27 09:29:59;;;;;;;3.03;0.88;;;6.10;99.90;;;;;;5038108;28;20023;-66
2024/01/27 09:32:25;;;;;;;1.30;0.63;;;6.10;99.90;;;;;;5043752;28;20178;-66
2024/01/27 09:34:53;;;;;;;4.43;1.80;;;6.00;99.90;;;;;;5022206;28;20797;-65
2024/01/27 09:37:19;;;;;;;2.45;0.82;;;6.00;99.90;;;;;;5042324;28;20036;-66
2024/01/27 09:39:44;;;;;;;8.57;2.42;;;6.10;99.90;;;;;;5043434;28;20336;-64
2024/01/27 09:42:14;;;;;;;4.03;1.08;;;6.10;99.90;;;;;;5042927;28;20111;-65
2024/01/27 09:44:44;;;;;;;8.00;1.40;;;6.20;99.90;;;;;;5040410;28;20698;-65
2024/01/27 09:47:11;;;;;;;4.90;0.55;;;6.20;99.90;;;;;;5038274;28;20536;-65
2024/01/27 09:49:39;;;;;;;3.65;0.90;;;6.20;99.90;;;;;;5035789;28;20076;-76
2024/01/27 09:52:05;;;;;;;1.77;0.60;;;6.20;99.90;;;;;;5045747;28;20025;-65
2024/01/27 09:54:31;;;;;;;5.05;0.68;;;6.20;99.90;;;;;;5035904;28;20353;-65
2024/01/27 09:56:57;;;;;;;0.95;0.40;;;6.30;99.90;;;;;;5036721;28;20425;-65
2024/01/27 09:59:24;;;;;;;1.80;0.68;;;6.30;99.90;;;;;;5036977;28;20029;-64
2024/01/27 10:01:51;;;;;;;4.95;0.80;;;6.40;99.90;;;;;;5037545;28;20028;-65
2024/01/27 10:04:22;;;;;;;4.03;1.05;;;6.50;99.90;;;;;;5039077;28;20389;-65
2024/01/27 10:06:50;;;;;;;1.95;0.80;;;6.50;99.90;;;;;;5036253;28;20025;-64
2024/01/27 10:09:16;;;;;;;56.38;5.68;;;6.60;99.90;;;;;;5039636;28;20043;-65
2024/01/27 10:11:46;;;;;;;2.67;0.80;;;6.70;99.90;;;;;;5036216;28;20044;-66
2024/01/27 10:14:12;;;;;;;3.08;0.50;;;6.60;99.90;;;;;;5027667;28;20029;-66
2024/01/27 10:16:45;;;;;;;4.13;1.73;;;6.60;99.90;;;;;;5024301;28;20028;-64
2024/01/27 10:19:20;;;;;;;1.95;0.52;;;6.50;99.90;;;;;;5032163;28;20397;-65
2024/01/27 10:21:47;;;;;;;6.30;1.10;;;6.50;99.90;;;;;;5031989;28;20052;-64
2024/01/27 10:24:12;;;;;;;4.25;0.88;;;6.50;99.90;;;;;;5047689;28;20045;-64
2024/01/27 10:26:38;;;;;;;3.30;0.52;;;6.50;99.90;;;;;;5045808;28;20148;-68
2024/01/27 10:29:04;;;;;;;2.63;0.65;;;6.50;99.90;;;;;;5049418;28;20481;-65
2024/01/27 10:31:33;;;;;;;2.47;0.80;;;6.50;99.90;;;;;;5048391;28;20397;-64
2024/01/27 10:34:01;;;;;;;5.85;0.82;;;6.60;99.90;;;;;;5044197;28;20178;-66
2024/01/27 10:36:37;;;;;;;4.57;0.80;;;6.50;99.90;;;;;;5042765;28;20021;-65
2024/01/27 10:39:13;;;;;;;2.70;0.75;;;6.50;99.90;;;;;;5045496;28;20801;-65
2024/01/27 10:41:40;;;;;;;1.83;0.80;;;6.50;99.90;;;;;;5049876;28;20127;-65
2024/01/27 10:44:07;;;;;;;4.10;0.70;;;6.60;99.90;;;;;;5050417;28;20130;-65
2024/01/27 10:46:33;;;;;;;2.80;0.80;;;6.50;99.90;;;;;;5051421;28;20443;-66
2024/01/27 10:49:00;;;;;;;2.55;0.90;;;6.50;99.90;;;;;;5053468;28;20416;-65
2024/01/27 10:51:35;;;;;;;1.25;0.80;;;6.60;99.90;;;;;;5048473;28;20041;-66
2024/01/27 10:54:03;;;;;;;4.18;0.75;;;6.60;99.90;;;;;;5048503;28;20056;-66
2024/01/27 10:56:32;;;;;;;2.17;0.70;;;6.60;99.90;;;;;;5053010;28;20028;-76
2024/01/27 10:58:59;;;;;;;9.07;0.90;;;6.60;99.90;;;;;;5048515;28;20218;-68
2024/01/27 11:01:26;;;;;;;3.40;1.20;;;6.60;99.90;;;;;;5048747;28;20031;-68
2024/01/27 11:03:54;;;;;;;2.88;0.70;;;6.60;99.90;;;;;;5053330;28;20412;-66
2024/01/27 11:06:22;;;;;;;3.05;0.90;;;6.60;99.90;;;;;;5045425;28;20177;-66
2024/01/27 11:08:50;;;;;;;1.90;0.68;;;6.60;99.90;;;;;;5030188;28;20032;-66
2024/01/27 11:11:16;;;;;;;2.97;1.10;;;6.70;99.90;;;;;;5029131;28;20115;-66
2024/01/27 11:13:43;;;;;;;3.67;1.67;;;6.60;99.90;;;;;;5051328;28;20090;-69
2024/01/27 11:16:18;;;;;;;5.07;0.60;;;6.60;99.90;;;;;;5046673;28;20043;-67
2024/01/27 11:18:45;;;;;;;2.55;0.90;;;6.60;99.90;;;;;;5050041;28;20029;-68
2024/01/27 11:21:19;;;;;;;5.60;1.20;;;6.70;99.90;;;;;;5035190;28;20040;-69
2024/01/27 11:23:47;;;;;;;10.30;1.80;;;6.70;99.90;;;;;;5049931;28;20044;-70
2024/01/27 11:26:22;;;;;;;6.93;2.22;;;6.60;99.90;;;;;;5039722;28;20151;-69
2024/01/27 11:28:49;;;;;;;9.70;3.50;;;6.70;99.90;;;;;;5044150;28;20127;-68
2024/01/27 11:31:19;;;;;;;6.10;1.25;;;6.80;99.90;;;;;;5045019;28;20520;-69
2024/01/27 11:33:48;;;;;;;8.40;2.15;;;6.80;99.90;;;;;;5051341;28;20096;-68
2024/01/27 11:36:23;;;;;;;5.45;0.93;;;6.80;99.90;;;;;;5051515;28;20512;-67
2024/01/27 11:38:51;;;;;;;5.90;0.73;;;6.80;99.90;;;;;;5042563;28;20029;-68
2024/01/27 11:41:24;;;;;;;5.10;0.88;;;6.70;99.90;;;;;;5045270;28;20142;-69
2024/01/27 11:43:54;;;;;;;3.78;0.90;;;6.80;99.90;;;;;;5043753;28;20029;-68
2024/01/27 11:46:20;;;;;;;8.63;2.90;;;6.80;99.90;;;;;;5045920;28;20036;-68
2024/01/27 11:48:46;;;;;;;4.68;3.30;;;6.80;99.90;;;;;;5044262;28;20029;-68
2024/01/27 11:51:12;;;;;;;3.45;1.13;;;6.90;99.90;;;;;;5045154;28;20032;-67
2024/01/27 11:53:38;;;;;;;4.07;0.75;;;6.80;99.90;;;;;;5050130;28;20665;-67
2024/01/27 11:56:04;;;;;;;3.33;0.90;;;6.70;99.90;;;;;;5046309;28;20106;-67
2024/01/27 11:58:31;;;;;;;2.55;0.85;;;6.60;99.90;;;;;;5046162;28;20028;-67
2024/01/27 12:00:58;;;;;;;4.00;0.80;;;6.60;99.90;;;;;;5039592;28;20045;-68
2024/01/27 12:03:24;;;;;;;1.55;0.73;;;6.60;99.90;;;;;;5048617;28;20033;-65
2024/01/27 12:05:49;;;;;;;5.43;1.25;;;6.60;99.90;;;;;;5043697;28;20028;-67
2024/01/27 12:08:17;;;;;;;3.63;0.98;;;6.50;99.90;;;;;;5049212;28;20032;-66
2024/01/27 12:10:42;;;;;;;3.70;1.40;;;6.50;99.90;;;;;;5047578;28;20032;-69
2024/01/27 12:13:08;;;;;;;4.50;0.80;;;6.40;99.90;;;;;;5039205;28;20071;-69
2024/01/27 12:15:33;;;;;;;3.50;0.88;;;6.40;99.90;;;;;;5035190;28;20025;-65
2024/01/27 12:17:59;;;;;;;5.60;1.00;;;6.40;99.90;;;;;;5041057;28;20459;-65
2024/01/27 12:20:25;;;;;;;5.93;1.08;;;6.40;99.90;;;;;;5042324;28;20260;-65
2024/01/27 12:23:04;;;;;;;5.35;1.00;;;6.50;99.90;;;;;;5014862;28;20052;-64
2024/01/27 12:25:30;;;;;;;4.43;1.08;;;6.60;99.90;;;;;;5004413;28;22261;-68
2024/01/27 12:28:00;;;;;;;3.40;0.85;;;6.60;99.90;;;;;;5043289;28;20423;-66
2024/01/27 12:30:26;;;;;;;4.38;1.02;;;6.70;99.90;;;;;;5040353;28;20024;-65
2024/01/27 12:32:52;;;;;;;3.75;0.75;;;6.70;99.90;;;;;;5043119;28;20031;-64
2024/01/27 12:35:18;;;;;;;5.90;0.60;;;6.70;99.90;;;;;;5046610;28;20064;-67
2024/01/27 12:37:44;;;;;;;2.72;0.77;;;6.70;99.90;;;;;;5051451;28;20025;-66
2024/01/27 12:40:20;;;;;;;3.65;1.00;;;6.70;99.90;;;;;;5048008;28;20071;-66
2024/01/27 12:42:46;;;;;;;9.38;1.13;;;6.70;99.90;;;;;;5050663;28;20480;-66
2024/01/27 12:45:12;;;;;;;4.38;0.63;;;6.80;99.90;;;;;;5037740;28;21347;-66
2024/01/27 12:47:39;;;;;;;2.63;0.70;;;6.90;99.90;;;;;;5050347;28;20119;-66
2024/01/27 12:50:06;;;;;;;3.20;0.43;;;6.90;99.90;;;;;;5036554;28;20110;-66
2024/01/27 12:52:32;;;;;;;5.05;0.90;;;6.80;99.90;;;;;;5051459;28;20060;-66